Time;durP1;ratioP1;P1;durP2;ratioP2;P2;SDS_P1;SDS_P2;PMS_P1;PMS_P2;Temp;Humidity;BMP_temperature;BMP_pressure;BME280_temperature;BME280_humidity;BME280_pressure;Samples;Min_cycle;Max_cycle;Signal;HPM_P1;HPM_P2
2022/11/29 00:02:01;;;;;;;57.20;24.65;;;;;;;5.15;100.00;101411.38;5206766;28;20029;-73
2022/11/29 00:04:32;;;;;;;53.72;24.15;;;;;;;5.09;100.00;101412.69;5206442;28;20257;-73
2022/11/29 00:07:02;;;;;;;59.55;25.80;;;;;;;5.07;100.00;101408.44;5205951;28;20022;-72
2022/11/29 00:09:33;;;;;;;54.00;23.67;;;;;;;5.14;100.00;101407.03;5206321;28;20506;-72
2022/11/29 00:12:12;;;;;;;65.00;26.95;;;;;;;5.21;100.00;101413.56;5205913;28;20123;-72
2022/11/29 00:14:42;;;;;;;63.75;26.23;;;;;;;5.21;100.00;101416.22;5206739;28;20030;-73
2022/11/29 00:17:13;;;;;;;148.13;28.20;;;;;;;5.09;100.00;101414.50;5205692;28;20052;-74
2022/11/29 00:19:44;;;;;;;188.18;27.63;;;;;;;4.96;100.00;101411.06;5206191;28;20028;-74
2022/11/29 00:22:14;;;;;;;67.93;25.27;;;;;;;4.88;100.00;101411.66;5205623;28;20049;-74
2022/11/29 00:24:44;;;;;;;77.70;24.63;;;;;;;4.83;100.00;101417.31;5206016;28;20061;-74
2022/11/29 00:27:16;;;;;;;260.77;28.15;;;;;;;4.77;100.00;101416.91;5200916;28;20025;-74
2022/11/29 00:29:46;;;;;;;114.22;20.63;;;;;;;4.71;100.00;101415.56;5196566;28;20426;-74
2022/11/29 00:32:17;;;;;;;155.90;22.77;;;;;;;4.64;100.00;101414.34;5205914;28;20025;-74
2022/11/29 00:34:47;;;;;;;183.75;26.40;;;;;;;4.58;100.00;101413.00;5205859;28;20032;-75
2022/11/29 00:37:18;;;;;;;261.02;28.83;;;;;;;4.53;100.00;101414.31;5205420;28;20399;-75
2022/11/29 00:39:48;;;;;;;206.10;28.17;;;;;;;4.50;100.00;101420.66;5205813;28;20025;-75
2022/11/29 00:42:19;;;;;;;102.70;25.45;;;;;;;4.48;100.00;101421.75;5205985;28;20051;-74
2022/11/29 00:44:49;;;;;;;71.03;22.80;;;;;;;4.47;100.00;101420.91;5206253;28;20025;-74
2022/11/29 00:47:20;;;;;;;115.47;25.60;;;;;;;4.45;100.00;101421.97;5204904;28;20491;-72
2022/11/29 00:49:51;;;;;;;162.65;23.92;;;;;;;4.40;100.00;101420.50;5204733;28;20448;-74
2022/11/29 00:52:21;;;;;;;110.90;23.38;;;;;;;4.34;100.00;101420.94;5205785;28;20049;-74
2022/11/29 00:54:51;;;;;;;56.25;22.83;;;;;;;4.29;100.00;101422.25;5204962;28;20436;-73
2022/11/29 00:57:22;;;;;;;53.38;23.45;;;;;;;4.26;100.00;101428.63;5205772;28;20044;-75
2022/11/29 00:59:52;;;;;;;74.13;25.52;;;;;;;4.23;100.00;101423.56;5205043;28;20032;-75
2022/11/29 01:02:23;;;;;;;73.78;28.58;;;;;;;4.22;100.00;101431.59;5205660;28;20018;-73
2022/11/29 01:04:53;;;;;;;75.22;26.70;;;;;;;4.18;100.00;101430.16;5205669;28;20463;-73
2022/11/29 01:07:24;;;;;;;50.88;24.10;;;;;;;4.14;100.00;101437.50;5204942;28;20025;-73
2022/11/29 01:09:54;;;;;;;63.67;26.45;;;;;;;4.12;100.00;101431.44;5205377;28;20344;-73
2022/11/29 01:12:25;;;;;;;54.75;24.95;;;;;;;4.24;100.00;101443.00;5204913;28;20363;-72
2022/11/29 01:14:57;;;;;;;70.78;26.45;;;;;;;4.28;100.00;101447.97;5205410;28;20025;-72
2022/11/29 01:17:28;;;;;;;88.55;31.35;;;;;;;4.27;100.00;101446.28;5204803;28;20126;-73
2022/11/29 01:19:58;;;;;;;89.13;25.77;;;;;;;4.18;100.00;101449.59;5205642;28;20025;-72
2022/11/29 01:22:29;;;;;;;60.53;21.98;;;;;;;4.09;100.00;101450.25;5205033;28;20479;-73
2022/11/29 01:24:59;;;;;;;69.00;25.67;;;;;;;3.99;100.00;101446.56;5204654;28;20036;-73
2022/11/29 01:27:30;;;;;;;41.80;21.55;;;;;;;3.88;100.00;101453.47;5204482;28;20052;-73
2022/11/29 01:30:00;;;;;;;107.18;25.40;;;;;;;3.81;100.00;101454.00;5205521;28;20521;-73
2022/11/29 01:32:31;;;;;;;66.95;24.15;;;;;;;3.71;100.00;101453.78;5204686;28;20037;-73
2022/11/29 01:35:03;;;;;;;157.52;24.58;;;;;;;3.64;100.00;101468.44;5204755;28;20060;-73
2022/11/29 01:37:34;;;;;;;100.65;23.35;;;;;;;3.60;100.00;101459.84;5204367;28;20395;-73
2022/11/29 01:40:05;;;;;;;116.53;24.63;;;;;;;3.53;100.00;101461.25;5204880;28;20026;-73
2022/11/29 01:42:35;;;;;;;88.80;20.20;;;;;;;3.47;100.00;101466.97;5205260;28;20021;-73
2022/11/29 01:45:20;;;;;;;67.75;23.30;;;;;;;3.44;100.00;101466.31;5204695;28;20029;-72
2022/11/29 01:47:55;;;;;;;59.75;23.15;;;;;;;3.43;100.00;101468.13;5203866;28;20029;-73
2022/11/29 01:50:25;;;;;;;117.82;23.80;;;;;;;3.41;100.00;101469.19;5204744;28;20390;-73
2022/11/29 01:52:57;;;;;;;107.45;23.65;;;;;;;3.37;100.00;101472.06;5204734;28;20025;-74
2022/11/29 01:55:28;;;;;;;51.08;22.33;;;;;;;3.33;100.00;101472.38;5204743;28;20104;-73
2022/11/29 01:57:59;;;;;;;53.67;21.00;;;;;;;3.34;100.00;101474.91;5203944;28;20124;-72
2022/11/29 02:00:30;;;;;;;125.45;22.33;;;;;;;3.36;100.00;101480.97;5204680;28;20405;-72
2022/11/29 02:03:10;;;;;;;56.50;21.42;;;;;;;3.33;100.00;101480.31;5204970;28;20108;-73
2022/11/29 02:05:45;;;;;;;57.05;20.15;;;;;;;3.35;100.00;101487.22;5204698;28;20076;-72
2022/11/29 02:08:23;;;;;;;;;;;;;;;3.41;100.00;101493.03;5204666;28;20095;-72
2022/11/29 02:11:23;;;;;;;90.40;22.88;;;;;;;3.41;100.00;101488.59;5204699;28;20334;-73
2022/11/29 02:14:22;;;;;;;87.45;24.73;;;;;;;3.39;100.00;101487.84;5204582;28;20025;-73
2022/11/29 02:17:02;;;;;;;113.05;25.15;;;;;;;3.37;100.00;101493.28;5204492;28;20104;-73
2022/11/29 02:19:35;;;;;;;121.28;26.30;;;;;;;3.34;100.00;101484.66;5204477;28;20037;-73
2022/11/29 02:22:15;;;;;;;133.10;25.02;;;;;;;3.29;100.00;101500.03;5204354;28;20538;-72
2022/11/29 02:24:49;;;;;;;79.18;22.42;;;;;;;3.26;100.00;101495.81;5204434;28;20032;-71
2022/11/29 02:27:38;;;;;;;46.30;21.15;;;;;;;3.26;100.00;101501.13;5198350;28;20026;-72
2022/11/29 02:31:22;;;;;;;66.95;24.40;;;;;;;3.29;100.00;101502.69;5198509;28;20475;-74
2022/11/29 02:33:58;;;;;;;69.88;23.63;;;;;;;3.32;100.00;101495.38;5118677;29;20086;-74
2022/11/29 02:37:02;;;;;;;75.75;21.35;;;;;;;3.33;100.00;101510.34;5168645;28;20419;-73
2022/11/29 02:40:11;;;;;;;109.55;22.85;;;;;;;3.33;100.00;101513.00;5195246;28;20041;-74
2022/11/29 02:43:12;;;;;;;109.72;21.88;;;;;;;3.29;100.00;101514.16;5181531;28;20364;-73
2022/11/29 02:45:54;;;;;;;37.15;18.45;;;;;;;3.25;100.00;101517.94;5192529;28;20353;-73
2022/11/29 02:48:41;;;;;;;44.35;19.73;;;;;;;3.32;100.00;101518.41;5203205;28;20028;-74
2022/11/29 02:51:34;;;;;;;80.28;25.17;;;;;;;3.40;100.00;101513.41;5203650;28;20033;-74
2022/11/29 02:54:15;;;;;;;90.90;24.15;;;;;;;3.42;100.00;101508.03;5203807;28;20072;-74
2022/11/29 02:56:55;;;;;;;85.85;24.40;;;;;;;3.40;100.00;101524.03;5203466;28;20100;-74
2022/11/29 02:59:41;;;;;;;71.35;22.23;;;;;;;3.34;100.00;101522.66;5203436;28;20029;-74
2022/11/29 03:02:31;;;;;;;79.47;24.08;;;;;;;3.32;100.00;101535.16;5205061;28;20113;-73
2022/11/29 03:05:35;;;;;;;69.18;21.40;;;;;;;3.26;100.00;101543.53;5204922;28;20207;-74
2022/11/29 03:08:47;;;;;;;63.42;21.08;;;;;;;3.21;100.00;101548.28;5202849;28;20075;-72
2022/11/29 03:11:38;;;;;;;41.55;21.55;;;;;;;3.19;100.00;101541.38;5179813;28;20136;-73
2022/11/29 03:14:27;;;;;;;47.40;20.73;;;;;;;3.16;100.00;101542.44;5180381;28;20025;-73
2022/11/29 03:17:24;;;;;;;72.78;21.00;;;;;;;3.13;100.00;101541.81;5199072;28;20208;-74
2022/11/29 03:20:34;;;;;;;146.02;24.23;;;;;;;2.96;100.00;101550.84;5192477;28;20049;-73
2022/11/29 03:23:23;;;;;;;34.83;17.63;;;;;;;2.86;100.00;101550.59;5196807;28;20044;-72
2022/11/29 03:26:14;;;;;;;51.70;19.98;;;;;;;2.80;100.00;101551.84;5202987;28;20044;-72
2022/11/29 03:29:05;;;;;;;56.72;20.50;;;;;;;2.81;100.00;101558.88;5202986;28;20477;-72
2022/11/29 03:31:40;;;;;;;46.47;20.52;;;;;;;2.82;100.00;101565.84;5203252;28;20032;-73
2022/11/29 03:34:54;;;;;;;97.40;20.42;;;;;;;2.88;100.00;101567.25;5189889;28;20440;-73
2022/11/29 03:37:43;;;;;;;139.00;23.58;;;;;;;2.85;100.00;101572.75;5202591;28;20088;-73
2022/11/29 03:40:18;;;;;;;49.53;18.90;;;;;;;2.82;100.00;101573.81;5202452;28;20033;-73
2022/11/29 03:43:05;;;;;;;41.47;19.48;;;;;;;2.87;100.00;101572.66;5201642;28;20025;-72
2022/11/29 03:45:47;;;;;;;68.57;21.75;;;;;;;2.90;100.00;101559.19;5202964;28;20025;-72
2022/11/29 03:48:28;;;;;;;69.50;21.67;;;;;;;2.91;100.00;101571.50;5202168;28;20104;-73
2022/11/29 03:51:01;;;;;;;83.93;22.05;;;;;;;2.86;100.00;101569.13;5202719;28;20025;-73
2022/11/29 03:53:50;;;;;;;66.40;21.15;;;;;;;2.82;100.00;101571.16;5202705;28;20495;-73
2022/11/29 03:56:22;;;;;;;61.20;21.67;;;;;;;2.78;100.00;101564.34;5202883;28;20026;-73
2022/11/29 03:59:14;;;;;;;58.55;20.50;;;;;;;2.71;100.00;101573.66;5201993;28;20096;-73
2022/11/29 04:02:00;;;;;;;75.90;21.20;;;;;;;2.63;100.00;101573.28;5189804;28;20029;-72
2022/11/29 04:04:55;;;;;;;64.68;19.15;;;;;;;2.57;100.00;101579.81;5202333;28;20025;-73
2022/11/29 04:07:40;;;;;;;50.20;17.57;;;;;;;2.50;100.00;101575.84;5202361;28;20033;-72
2022/11/29 04:10:26;;;;;;;59.42;17.60;;;;;;;2.44;100.00;101570.09;5201467;28;20288;-72
2022/11/29 04:13:24;;;;;;;74.30;19.83;;;;;;;2.38;100.00;101581.91;5202576;28;20025;-71
2022/11/29 04:16:02;;;;;;;107.85;21.48;;;;;;;2.36;100.00;101582.94;5202730;28;20037;-72
2022/11/29 04:19:01;;;;;;;127.30;20.27;;;;;;;2.32;100.00;101580.50;5202291;28;20025;-72
2022/11/29 04:21:48;;;;;;;42.95;16.13;;;;;;;2.32;100.00;101590.25;5201639;28;20495;-72
2022/11/29 04:25:03;;;;;;;32.47;16.25;;;;;;;2.34;100.00;101583.88;5202333;28;20029;-72
2022/11/29 04:27:34;;;;;;;50.90;18.02;;;;;;;2.48;100.00;101595.44;5219515;28;20039;-71
2022/11/29 04:30:24;;;;;;;41.45;18.10;;;;;;;2.58;100.00;101592.09;5221221;28;20479;-72
2022/11/29 04:33:28;;;;;;;87.75;23.15;;;;;;;2.72;100.00;101595.69;5216032;28;20052;-71
2022/11/29 04:36:17;;;;;;;146.32;25.42;;;;;;;2.78;100.00;101592.66;5206374;28;20352;-72
2022/11/29 04:39:00;;;;;;;101.78;18.77;;;;;;;2.81;100.00;101590.66;5204521;28;20614;-72
2022/11/29 04:42:07;;;;;;;122.00;20.30;;;;;;;2.83;100.00;101588.75;5206213;28;20375;-72
2022/11/29 04:44:57;;;;;;;120.10;21.45;;;;;;;2.85;100.00;101592.13;5205884;28;20396;-72
2022/11/29 04:47:40;;;;;;;102.97;20.10;;;;;;;2.89;100.00;101602.56;5205639;28;20546;-72
2022/11/29 04:50:42;;;;;;;129.05;21.88;;;;;;;2.91;100.00;101604.16;5206046;28;20065;-71
2022/11/29 04:53:40;;;;;;;90.40;22.70;;;;;;;2.96;100.00;101603.84;5205397;28;20390;-72
2022/11/29 04:56:29;;;;;;;64.78;22.08;;;;;;;3.04;100.00;101612.16;5205844;28;20040;-72
2022/11/29 04:59:11;;;;;;;43.75;19.08;;;;;;;3.11;100.00;101613.47;5205306;28;20033;-72
2022/11/29 05:01:58;;;;;;;41.00;20.23;;;;;;;3.20;100.00;101620.81;5204347;28;20044;-73
2022/11/29 05:04:51;;;;;;;46.45;20.70;;;;;;;3.27;100.00;101621.28;5205479;28;20033;-75
2022/11/29 05:07:36;;;;;;;45.17;19.65;;;;;;;3.33;100.00;101624.38;5205299;28;20037;-75
2022/11/29 05:10:15;;;;;;;50.03;22.77;;;;;;;3.44;100.00;101633.44;5205425;28;20080;-76
2022/11/29 05:13:15;;;;;;;45.13;20.92;;;;;;;3.46;100.00;101629.72;5204263;28;20284;-75
2022/11/29 05:16:24;;;;;;;50.47;21.85;;;;;;;3.50;100.00;101625.06;5205675;28;20040;-74
2022/11/29 05:19:27;;;;;;;51.40;22.23;;;;;;;3.53;100.00;101628.38;5183253;28;20034;-72
2022/11/29 05:22:15;;;;;;;47.17;20.13;;;;;;;3.58;100.00;101633.38;5205437;28;20114;-72
2022/11/29 05:25:10;;;;;;;39.70;19.10;;;;;;;3.58;100.00;101633.38;5205447;28;20033;-73
2022/11/29 05:28:05;;;;;;;41.53;19.48;;;;;;;3.61;100.00;101642.00;5204676;28;20056;-72
2022/11/29 05:31:02;;;;;;;46.97;21.88;;;;;;;3.62;100.00;101645.50;5205034;28;20044;-74
2022/11/29 05:34:07;;;;;;;47.35;21.42;;;;;;;3.65;100.00;101647.94;5204625;28;20030;-73
2022/11/29 05:37:06;;;;;;;48.63;21.35;;;;;;;3.69;100.00;101654.75;5204835;28;20033;-72
2022/11/29 05:39:55;;;;;;;45.75;22.52;;;;;;;3.70;100.00;101659.09;5195544;28;20033;-75
2022/11/29 05:42:37;;;;;;;44.15;21.35;;;;;;;3.72;100.00;101666.97;5204921;28;20079;-73
2022/11/29 05:45:26;;;;;;;41.50;20.38;;;;;;;3.75;100.00;101667.59;5204244;28;20028;-75
2022/11/29 05:48:16;;;;;;;47.63;21.67;;;;;;;3.79;100.00;101662.94;5204417;28;20112;-73
2022/11/29 05:50:55;;;;;;;44.90;21.13;;;;;;;3.85;100.00;101668.69;5204740;28;20108;-72
2022/11/29 05:53:48;;;;;;;46.92;21.58;;;;;;;3.88;100.00;101671.16;5204537;28;20031;-72
2022/11/29 05:56:25;;;;;;;46.35;21.27;;;;;;;3.93;100.00;101680.59;5204743;28;20029;-73
2022/11/29 05:59:02;;;;;;;42.15;19.55;;;;;;;3.94;100.00;101683.16;5204226;28;20029;-73
2022/11/29 06:01:56;;;;;;;50.10;22.08;;;;;;;3.99;100.00;101689.00;5203582;28;20414;-73
2022/11/29 06:04:48;;;;;;;50.22;22.33;;;;;;;4.04;100.00;101689.53;5204310;28;20428;-73
2022/11/29 06:07:47;;;;;;;45.25;21.38;;;;;;;4.10;100.00;101696.25;5197335;28;20459;-73
2022/11/29 06:10:20;;;;;;;54.50;23.65;;;;;;;4.13;100.00;101696.03;5191827;28;20454;-73
2022/11/29 06:13:35;;;;;;;50.88;23.17;;;;;;;4.18;100.00;101693.09;5204025;28;20032;-73
2022/11/29 06:16:22;;;;;;;52.08;23.15;;;;;;;4.23;100.00;101699.78;5192646;28;20104;-74
2022/11/29 06:19:17;;;;;;;57.90;24.05;;;;;;;4.25;100.00;101699.66;5203619;28;20025;-73
2022/11/29 06:21:58;;;;;;;49.05;20.40;;;;;;;4.25;100.00;101713.78;5204257;28;20084;-73
2022/11/29 06:24:34;;;;;;;60.70;22.80;;;;;;;4.24;100.00;101717.41;5204675;28;20044;-73
2022/11/29 06:27:28;;;;;;;46.08;20.42;;;;;;;4.16;100.00;101709.94;5200290;28;20061;-73
2022/11/29 06:30:13;;;;;;;59.38;22.83;;;;;;;4.10;100.00;101718.34;5196598;28;20393;-73
2022/11/29 06:32:46;;;;;;;54.90;25.23;;;;;;;4.06;100.00;101714.19;5203734;28;20080;-73
2022/11/29 06:35:46;;;;;;;49.05;22.60;;;;;;;3.96;100.00;101726.38;5203318;28;20438;-74
2022/11/29 06:38:29;;;;;;;51.60;23.30;;;;;;;3.89;100.00;101725.94;5203344;28;20036;-74
2022/11/29 06:41:00;;;;;;;50.60;22.48;;;;;;;3.83;100.00;101723.69;5202702;28;20048;-73
2022/11/29 06:43:32;;;;;;;53.92;23.95;;;;;;;3.75;100.00;101723.34;5203638;28;20018;-73
2022/11/29 06:46:12;;;;;;;49.65;22.70;;;;;;;3.68;100.00;101730.00;5203949;28;20493;-73
2022/11/29 06:49:01;;;;;;;60.63;25.42;;;;;;;3.56;100.00;101728.97;5203231;28;20392;-73
2022/11/29 06:51:50;;;;;;;53.20;23.85;;;;;;;3.51;100.00;101739.03;5203963;28;20017;-73
2022/11/29 06:54:35;;;;;;;67.63;24.33;;;;;;;3.47;100.00;101734.91;5202866;28;20026;-73
2022/11/29 06:57:13;;;;;;;48.97;21.60;;;;;;;3.40;100.00;101741.53;5203429;28;20017;-73
2022/11/29 06:59:55;;;;;;;54.60;24.35;;;;;;;3.36;100.00;101743.56;5203235;28;20040;-73
2022/11/29 07:02:54;;;;;;;165.32;29.58;;;;;;;3.32;100.00;101736.75;5203046;28;20022;-74
2022/11/29 07:05:28;;;;;;;114.90;24.88;;;;;;;3.29;100.00;101750.19;5203302;28;20030;-73
2022/11/29 07:08:11;;;;;;;50.90;20.20;;;;;;;3.23;100.00;101741.78;5203298;28;20112;-72
2022/11/29 07:10:43;;;;;;;50.28;21.40;;;;;;;3.19;100.00;101749.06;5202752;28;20494;-71
2022/11/29 07:13:17;;;;;;;46.80;20.42;;;;;;;3.17;100.00;101753.63;5203400;28;20053;-72
2022/11/29 07:15:50;;;;;;;335.88;33.00;;;;;;;3.14;100.00;101759.09;5203171;28;20083;-72
2022/11/29 07:18:50;;;;;;;362.63;27.33;;;;;;;3.09;100.00;101764.69;5201937;28;20483;-72
2022/11/29 07:21:44;;;;;;;144.82;20.45;;;;;;;3.06;100.00;101767.56;5183755;28;20033;-72
2022/11/29 07:24:22;;;;;;;38.78;17.65;;;;;;;3.07;100.00;101771.06;5203043;28;20026;-72
2022/11/29 07:26:58;;;;;;;42.78;19.70;;;;;;;3.16;100.00;101774.91;5202911;28;20471;-72
2022/11/29 07:29:45;;;;;;;48.13;20.80;;;;;;;3.21;100.00;101778.97;5202548;28;20088;-72
2022/11/29 07:32:28;;;;;;;67.82;20.70;;;;;;;3.30;100.00;101789.00;5202867;28;20375;-72
2022/11/29 07:35:26;;;;;;;37.67;18.42;;;;;;;3.34;100.00;101787.03;5203052;28;20443;-72
2022/11/29 07:38:11;;;;;;;51.92;23.13;;;;;;;3.40;100.00;101793.75;5202338;28;20034;-71
2022/11/29 07:40:49;;;;;;;47.28;20.60;;;;;;;3.48;100.00;101799.44;5189402;28;20033;-72
2022/11/29 07:43:19;;;;;;;53.13;21.70;;;;;;;3.56;100.00;101797.97;5203052;28;20025;-72
2022/11/29 07:45:50;;;;;;;46.47;22.13;;;;;;;3.61;100.00;101803.88;5202949;28;20028;-71
2022/11/29 07:48:20;;;;;;;50.67;20.65;;;;;;;3.68;100.00;101808.78;5201781;28;20029;-72
2022/11/29 07:50:53;;;;;;;47.45;21.67;;;;;;;3.73;100.00;101796.91;5182349;28;20145;-72
2022/11/29 07:53:23;;;;;;;46.97;20.98;;;;;;;3.79;100.00;101804.47;5200660;28;20112;-71
2022/11/29 07:55:54;;;;;;;48.05;21.98;;;;;;;3.87;100.00;101802.19;5200291;28;20151;-71
2022/11/29 07:58:24;;;;;;;49.35;22.15;;;;;;;3.96;100.00;101808.69;5200962;28;20029;-71
2022/11/29 08:00:55;;;;;;;55.13;23.48;;;;;;;4.02;100.00;101812.75;5200875;28;20029;-72
2022/11/29 08:03:25;;;;;;;48.83;22.23;;;;;;;4.06;100.00;101808.94;5201723;28;20017;-71
2022/11/29 08:05:56;;;;;;;49.47;22.90;;;;;;;4.08;100.00;101807.88;5205467;28;20549;-72
2022/11/29 08:08:27;;;;;;;46.95;20.80;;;;;;;4.11;100.00;101812.97;5203922;28;20033;-72
2022/11/29 08:10:58;;;;;;;44.13;19.75;;;;;;;4.10;100.00;101811.28;5204892;28;20040;-72
2022/11/29 08:13:28;;;;;;;51.90;21.02;;;;;;;4.13;100.00;101808.44;5205506;28;20140;-72
2022/11/29 08:15:59;;;;;;;42.55;19.45;;;;;;;4.19;100.00;101819.59;5210037;28;20342;-72
2022/11/29 08:18:29;;;;;;;50.20;22.58;;;;;;;4.27;100.00;101814.66;5207332;28;20017;-72
2022/11/29 08:21:04;;;;;;;55.42;24.45;;;;;;;4.37;100.00;101823.72;5205715;28;20167;-71
2022/11/29 08:23:35;;;;;;;;;;;;;;;4.47;100.00;101831.88;5205412;28;20017;-72
2022/11/29 08:26:05;;;;;;;60.35;24.92;;;;;;;4.56;100.00;101836.59;5205181;28;20055;-72
2022/11/29 08:28:36;;;;;;;57.25;26.02;;;;;;;4.63;100.00;101841.41;5203988;28;20021;-72
2022/11/29 08:31:09;;;;;;;58.97;24.65;;;;;;;4.71;100.00;101838.22;5204633;28;20013;-72
2022/11/29 08:33:42;;;;;;;55.22;24.33;;;;;;;4.79;100.00;101838.56;5205321;28;20033;-72
2022/11/29 08:36:16;;;;;;;58.13;23.98;;;;;;;4.85;100.00;101843.44;5204853;28;20030;-72
2022/11/29 08:38:47;;;;;;;59.30;25.02;;;;;;;4.92;100.00;101849.22;5204433;28;20017;-72
2022/11/29 08:41:18;;;;;;;56.35;24.33;;;;;;;5.00;100.00;101859.31;5204638;28;20435;-72
2022/11/29 08:43:48;;;;;;;63.40;25.13;;;;;;;5.05;100.00;101854.53;5205277;28;20136;-72
2022/11/29 08:46:19;;;;;;;60.13;25.30;;;;;;;5.15;100.00;101858.25;5204750;28;20478;-72
2022/11/29 08:48:49;;;;;;;55.80;24.52;;;;;;;5.20;100.00;101862.28;5203826;28;20422;-72
2022/11/29 08:51:20;;;;;;;58.35;25.58;;;;;;;5.26;100.00;101870.81;5204097;28;20528;-72
2022/11/29 08:53:51;;;;;;;55.15;24.52;;;;;;;5.31;100.00;101866.84;5204778;28;20391;-72
2022/11/29 08:56:21;;;;;;;57.53;25.13;;;;;;;5.39;100.00;101875.16;5204679;28;20025;-72
2022/11/29 08:58:52;;;;;;;53.58;25.50;;;;;;;5.46;100.00;101863.13;5204093;28;20051;-72
2022/11/29 09:01:23;;;;;;;66.97;26.23;;;;;;;5.52;100.00;101867.16;5204069;28;20074;-72
2022/11/29 09:04:01;;;;;;;63.25;28.05;;;;;;;5.60;100.00;101863.97;5204499;28;20025;-72
2022/11/29 09:06:37;;;;;;;64.82;27.27;;;;;;;5.67;100.00;101862.53;5204335;28;20029;-72
2022/11/29 09:09:07;;;;;;;62.03;27.42;;;;;;;5.75;100.00;101867.34;5203523;28;20040;-72
2022/11/29 09:11:38;;;;;;;64.90;26.75;;;;;;;5.82;100.00;101873.91;5203975;28;20017;-72
2022/11/29 09:14:13;;;;;;;63.25;27.73;;;;;;;5.84;100.00;101875.53;5204726;28;20029;-72
2022/11/29 09:16:44;;;;;;;92.18;33.72;;;;;;;5.89;100.00;101873.38;5203455;28;20479;-72
2022/11/29 09:19:15;;;;;;;75.35;32.45;;;;;;;5.94;100.00;101873.94;5203742;28;20079;-72
2022/11/29 09:21:46;;;;;;;91.05;37.65;;;;;;;6.03;100.00;101874.22;5203815;28;20025;-72
2022/11/29 09:24:17;;;;;;;84.55;36.60;;;;;;;6.13;100.00;101877.91;5203658;28;20036;-72
2022/11/29 09:26:48;;;;;;;85.47;34.22;;;;;;;6.22;100.00;101882.56;5203355;28;20075;-72
2022/11/29 09:29:18;;;;;;;72.35;33.92;;;;;;;6.27;100.00;101872.41;5191161;28;20026;-72
2022/11/29 09:31:49;;;;;;;74.40;34.10;;;;;;;6.38;100.00;101883.16;5203462;28;20537;-73
2022/11/29 09:34:19;;;;;;;78.18;31.63;;;;;;;6.51;100.00;101893.72;5203768;28;20025;-72
2022/11/29 09:36:50;;;;;;;78.78;31.13;;;;;;;6.57;100.00;101887.94;5203630;28;20022;-72
2022/11/29 09:39:20;;;;;;;74.00;30.23;;;;;;;6.64;100.00;101893.69;5202358;28;20489;-72
2022/11/29 09:42:13;;;;;;;66.43;27.98;;;;;;;6.79;100.00;101892.50;5203317;28;20052;-72
2022/11/29 09:45:03;;;;;;;68.10;30.63;;;;;;;6.89;100.00;101900.66;5203561;28;20026;-72
2022/11/29 09:47:56;;;;;;;93.43;42.13;;;;;;;6.99;100.00;101899.84;5194487;28;20112;-72
2022/11/29 09:50:35;;;;;;;81.60;32.50;;;;;;;7.09;100.00;101907.16;5203212;28;20033;-72
2022/11/29 09:53:30;;;;;;;66.47;29.23;;;;;;;7.32;100.00;101914.22;5203170;28;20029;-73
2022/11/29 09:56:16;;;;;;;67.82;26.20;;;;;;;7.46;100.00;101913.16;5203609;28;20044;-72
2022/11/29 09:59:08;;;;;;;52.83;23.77;;;;;;;7.47;100.00;101910.34;5203359;28;20036;-72
2022/11/29 10:01:46;;;;;;;63.75;26.73;;;;;;;7.53;100.00;101919.72;5202645;28;20030;-72
2022/11/29 10:04:20;;;;;;;66.05;26.10;;;;;;;7.56;100.00;101910.59;5203468;28;20061;-72
2022/11/29 10:07:11;;;;;;;53.42;24.10;;;;;;;7.57;100.00;101917.63;5203427;28;20494;-72
2022/11/29 10:09:50;;;;;;;56.28;22.85;;;;;;;7.59;100.00;101913.91;5202330;28;20033;-72
2022/11/29 10:12:43;;;;;;;55.30;24.75;;;;;;;7.66;100.00;101914.25;5203097;28;20029;-72
2022/11/29 10:15:20;;;;;;;63.28;26.77;;;;;;;7.71;100.00;101918.25;5202238;28;20036;-72
2022/11/29 10:18:15;;;;;;;69.72;27.15;;;;;;;7.77;100.00;101911.56;5203027;28;20052;-72
2022/11/29 10:20:49;;;;;;;67.55;27.17;;;;;;;7.76;100.00;101921.41;5202661;28;20029;-72
2022/11/29 10:23:30;;;;;;;64.65;29.85;;;;;;;7.81;100.00;101918.38;5203282;28;20108;-72
2022/11/29 10:26:06;;;;;;;59.17;29.48;;;;;;;7.89;100.00;101912.44;5203346;28;20041;-72
2022/11/29 10:28:43;;;;;;;65.28;29.92;;;;;;;7.85;100.00;101913.66;5187668;28;20226;-72
2022/11/29 10:31:26;;;;;;;55.20;26.50;;;;;;;7.89;100.00;101913.28;5201866;28;20018;-72
2022/11/29 10:33:59;;;;;;;59.90;26.42;;;;;;;7.86;100.00;101918.84;5201758;28;20071;-72
2022/11/29 10:36:40;;;;;;;64.90;29.00;;;;;;;7.74;100.00;101909.16;5201266;28;20033;-72
2022/11/29 10:39:38;;;;;;;73.65;31.10;;;;;;;7.75;100.00;101914.38;5201971;28;20219;-72
2022/11/29 10:45:13;;;;;;;70.10;30.42;;;;;;;7.90;100.00;101909.63;5201961;28;20025;-73
2022/11/29 10:47:46;;;;;;;73.25;30.13;;;;;;;7.96;100.00;101914.47;5201987;28;20025;-73
2022/11/29 10:50:26;;;;;;;75.60;35.80;;;;;;;7.96;100.00;101906.47;5201445;28;20080;-73
2022/11/29 10:53:11;;;;;;;78.18;32.13;;;;;;;8.00;100.00;101907.91;5201992;28;20029;-73
2022/11/29 10:55:45;;;;;;;73.30;33.60;;;;;;;8.05;100.00;101910.22;5201727;28;20589;-72
2022/11/29 10:58:29;;;;;;;73.32;32.15;;;;;;;8.02;100.00;101915.81;5201708;28;20391;-73
2022/11/29 11:01:05;;;;;;;68.80;30.30;;;;;;;8.00;100.00;101915.94;5201103;28;20029;-73
2022/11/29 11:03:41;;;;;;;72.85;31.88;;;;;;;8.06;100.00;101917.25;5201978;28;20498;-73
2022/11/29 11:06:22;;;;;;;66.97;30.83;;;;;;;8.13;100.00;101926.47;5201244;28;20056;-73
2022/11/29 11:08:55;;;;;;;65.00;30.52;;;;;;;8.34;100.00;101926.56;5201317;28;20029;-73
2022/11/29 11:11:30;;;;;;;59.47;28.30;;;;;;;8.43;100.00;101917.81;5201567;28;20025;-73
2022/11/29 11:14:17;;;;;;;59.95;27.00;;;;;;;8.53;100.00;101926.78;5202375;28;20136;-73
2022/11/29 11:16:48;;;;;;;55.47;27.30;;;;;;;8.48;100.00;101923.66;5202259;28;20031;-73
2022/11/29 11:19:32;;;;;;;55.67;23.70;;;;;;;8.63;100.00;101926.84;5201751;28;20026;-73
2022/11/29 11:22:03;;;;;;;52.33;26.25;;;;;;;8.52;100.00;101926.91;5201320;28;20021;-73
2022/11/29 11:24:40;;;;;;;62.90;29.75;;;;;;;8.47;100.00;101927.28;5202216;28;20017;-73
2022/11/29 11:27:11;;;;;;;52.13;26.50;;;;;;;8.47;100.00;101932.63;5197443;28;20604;-72
2022/11/29 11:29:43;;;;;;;52.45;24.20;;;;;;;8.54;100.00;101933.84;5191399;28;20065;-73
2022/11/29 11:32:17;;;;;;;54.10;24.63;;;;;;;8.62;100.00;101933.19;5199829;28;20174;-72
2022/11/29 11:34:52;;;;;;;50.83;22.73;;;;;;;8.70;100.00;101937.91;5201795;28;20025;-72
2022/11/29 11:37:29;;;;;;;50.35;22.90;;;;;;;8.64;100.00;101941.09;5200884;28;20033;-73
2022/11/29 11:40:25;;;;;;;48.85;22.15;;;;;;;8.59;100.00;101937.97;5203271;28;20025;-73
2022/11/29 11:42:57;;;;;;;49.00;21.75;;;;;;;8.52;100.00;101942.94;5205806;28;20018;-73
2022/11/29 11:45:35;;;;;;;51.05;23.88;;;;;;;8.44;100.00;101942.75;5205828;28;20478;-73
2022/11/29 11:48:14;;;;;;;53.00;22.42;;;;;;;8.40;100.00;101942.13;5205031;28;20033;-73
2022/11/29 11:50:51;;;;;;;49.17;22.48;;;;;;;8.46;100.00;101943.47;5203793;28;20028;-72
2022/11/29 11:53:50;;;;;;;56.42;24.88;;;;;;;8.51;100.00;101951.94;5206639;28;20025;-72
2022/11/29 11:56:22;;;;;;;55.40;23.05;;;;;;;8.56;100.00;101953.28;5206216;28;20092;-73
2022/11/29 11:58:56;;;;;;;60.13;23.88;;;;;;;8.67;100.00;101957.72;5206207;28;20031;-73
2022/11/29 12:01:38;;;;;;;46.65;22.23;;;;;;;8.67;100.00;101965.75;5205882;28;20330;-73
2022/11/29 12:04:21;;;;;;;49.65;21.48;;;;;;;8.59;100.00;101964.72;5205111;28;20442;-73
2022/11/29 12:06:54;;;;;;;51.42;24.08;;;;;;;8.58;100.00;101961.16;5206209;28;20444;-73
2022/11/29 12:09:46;;;;;;;60.80;24.23;;;;;;;8.57;100.00;101967.50;5206402;28;20038;-73
2022/11/29 12:12:22;;;;;;;50.22;20.77;;;;;;;8.56;100.00;101976.50;5206754;28;20036;-73
2022/11/29 12:14:54;;;;;;;51.00;22.55;;;;;;;8.52;100.00;101967.88;5207343;28;20040;-73